createdAt,value
2018-04-18T00:00:43.739Z,11.30
2018-04-18T00:03:11.263Z,11.30
2018-04-18T00:05:38.859Z,11.20
2018-04-18T00:08:06.386Z,11.20
2018-04-18T00:10:34.698Z,11.20
2018-04-18T00:13:02.221Z,11.20
2018-04-18T00:15:29.755Z,11.10
2018-04-18T00:17:57.282Z,11.20
2018-04-18T00:20:24.840Z,11.20
2018-04-18T00:22:52.355Z,11.10
2018-04-18T00:25:19.931Z,11.10
2018-04-18T00:27:47.447Z,11.10
2018-04-18T00:30:14.991Z,11.10
2018-04-18T00:32:42.536Z,11.20
2018-04-18T00:35:10.098Z,11.20
2018-04-18T00:37:37.606Z,11.10
2018-04-18T00:40:05.149Z,11.00
2018-04-18T00:42:32.699Z,11.00
2018-04-18T00:45:00.245Z,11.10
2018-04-18T00:47:27.754Z,11.00
2018-04-18T00:49:55.286Z,11.00
2018-04-18T00:52:22.820Z,11.00
2018-04-18T00:54:50.430Z,11.00
2018-04-18T00:57:17.948Z,10.90
2018-04-18T00:59:45.488Z,10.90
2018-04-18T01:02:13.059Z,10.90
2018-04-18T01:04:40.654Z,10.80
2018-04-18T01:07:08.159Z,10.80
2018-04-18T01:09:35.720Z,10.80
2018-04-18T01:12:03.462Z,10.80
2018-04-18T01:14:30.983Z,10.80
2018-04-18T01:16:58.543Z,10.70
2018-04-18T01:19:26.063Z,10.70
2018-04-18T01:21:53.629Z,10.70
2018-04-18T01:24:21.167Z,10.60
2018-04-18T01:26:48.699Z,10.50
2018-04-18T01:29:16.239Z,10.50
2018-04-18T01:31:43.780Z,10.50
2018-04-18T01:34:11.318Z,10.50
2018-04-18T01:36:38.863Z,10.50
2018-04-18T01:39:06.407Z,10.50
2018-04-18T01:41:33.943Z,10.50
2018-04-18T01:44:01.459Z,10.50
2018-04-18T01:46:29.770Z,10.40
2018-04-18T01:49:08.975Z,10.40
2018-04-18T01:51:36.557Z,10.40
2018-04-18T01:54:04.076Z,10.40
2018-04-18T01:56:31.628Z,10.30
2018-04-18T01:58:59.833Z,10.40
2018-04-18T02:01:27.371Z,10.30
2018-04-18T02:03:54.898Z,10.30
2018-04-18T02:06:22.456Z,10.30
2018-04-18T02:08:50.000Z,10.30
2018-04-18T02:11:17.535Z,10.30
2018-04-18T02:13:45.091Z,10.30
2018-04-18T02:16:12.624Z,10.20
2018-04-18T02:18:40.152Z,10.20
2018-04-18T02:21:07.683Z,10.20
2018-04-18T02:23:35.200Z,10.20
2018-04-18T02:26:02.736Z,10.20
2018-04-18T02:28:30.267Z,10.20
2018-04-18T02:30:57.812Z,10.10
2018-04-18T02:33:25.609Z,10.20
2018-04-18T02:35:53.150Z,10.10
2018-04-18T02:38:20.666Z,10.10
2018-04-18T02:40:48.228Z,10.00
2018-04-18T02:43:15.742Z,10.00
2018-04-18T02:45:43.279Z,10.00
2018-04-18T02:48:11.573Z,10.00
2018-04-18T02:50:39.099Z,9.80
2018-04-18T02:53:06.623Z,9.90
2018-04-18T02:55:53.402Z,9.80
2018-04-18T02:58:20.932Z,9.80
2018-04-18T03:00:48.475Z,9.80
2018-04-18T03:03:16.016Z,9.80
2018-04-18T03:05:43.557Z,9.80
2018-04-18T03:08:11.083Z,9.80
2018-04-18T03:10:39.358Z,9.80
2018-04-18T03:13:07.654Z,9.90
2018-04-18T03:15:35.158Z,9.80
2018-04-18T03:18:02.698Z,9.90
2018-04-18T03:20:30.208Z,9.80
2018-04-18T03:22:58.516Z,9.70
2018-04-18T03:25:26.052Z,9.70
2018-04-18T03:27:54.369Z,9.70
2018-04-18T03:30:21.891Z,9.60
2018-04-18T03:32:50.203Z,9.60
2018-04-18T03:35:17.711Z,9.60
2018-04-18T03:37:45.256Z,9.60
2018-04-18T03:40:12.767Z,9.70
2018-04-18T03:42:40.302Z,9.60
2018-04-18T03:45:07.812Z,9.60
2018-04-18T03:47:35.335Z,9.60
2018-04-18T03:50:03.618Z,9.60
2018-04-18T03:52:31.921Z,9.50
2018-04-18T03:54:59.426Z,9.50
2018-04-18T03:57:26.972Z,9.50
2018-04-18T03:59:54.483Z,9.50
2018-04-18T04:02:22.022Z,9.40
2018-04-18T04:04:50.293Z,9.40
2018-04-18T04:07:17.832Z,9.40
2018-04-18T04:09:45.382Z,9.40
2018-04-18T04:12:12.927Z,9.30
2018-04-18T04:14:40.435Z,9.30
2018-04-18T04:17:19.551Z,9.30
2018-04-18T04:19:58.850Z,9.30
2018-04-18T04:22:38.187Z,9.20
2018-04-18T04:25:06.849Z,9.30
2018-04-18T04:27:34.386Z,9.30
2018-04-18T04:30:01.899Z,9.30
2018-04-18T04:32:29.443Z,9.30
2018-04-18T04:34:56.955Z,9.30
2018-04-18T04:37:25.346Z,9.30
2018-04-18T04:39:53.646Z,9.30
2018-04-18T04:42:21.228Z,9.20
2018-04-18T04:44:48.779Z,9.20
2018-04-18T04:47:17.065Z,9.20
2018-04-18T04:49:44.579Z,9.30
2018-04-18T04:52:12.121Z,9.20
2018-04-18T04:54:39.630Z,9.30
2018-04-18T04:57:07.187Z,9.20
2018-04-18T04:59:34.702Z,9.30
2018-04-18T05:02:02.240Z,9.30
2018-04-18T05:04:29.752Z,9.30
2018-04-18T05:06:57.341Z,9.40
2018-04-18T05:09:24.842Z,9.40
2018-04-18T05:11:52.400Z,9.40
2018-04-18T05:14:19.922Z,9.50
2018-04-18T05:16:47.489Z,9.50
2018-04-18T05:19:15.023Z,9.60
2018-04-18T05:21:42.534Z,9.70
2018-04-18T05:24:10.059Z,9.80
2018-04-18T05:26:37.590Z,9.80
2018-04-18T05:29:05.891Z,9.90
2018-04-18T05:31:33.417Z,9.90
2018-04-18T05:34:00.998Z,10.00
2018-04-18T05:36:29.286Z,10.20
2018-04-18T05:38:56.874Z,10.20
2018-04-18T05:41:24.382Z,10.40
2018-04-18T05:43:53.343Z,11.20
2018-04-18T05:46:20.859Z,11.20
2018-04-18T05:48:49.217Z,12.30
2018-04-18T05:51:16.730Z,13.40
2018-04-18T05:53:44.306Z,14.10
2018-04-18T05:56:11.827Z,15.30
2018-04-18T05:58:39.966Z,15.90
2018-04-18T06:01:07.482Z,16.30
2018-04-18T06:03:35.017Z,16.30
2018-04-18T06:06:02.546Z,17.10
2018-04-18T06:08:30.854Z,18.00
2018-04-18T06:10:58.368Z,17.90
2018-04-18T06:13:25.930Z,18.10
2018-04-18T06:15:53.458Z,18.40
2018-04-18T06:18:21.006Z,18.20
2018-04-18T06:20:48.527Z,18.10
2018-04-18T06:23:16.073Z,18.40
2018-04-18T06:25:43.595Z,18.00
2018-04-18T06:28:11.128Z,17.30
2018-04-18T06:30:38.647Z,17.00
2018-04-18T06:33:06.193Z,17.00
2018-04-18T06:35:33.715Z,17.00
2018-04-18T06:38:01.267Z,16.80
2018-04-18T06:40:28.780Z,16.90
2018-04-18T06:42:56.310Z,17.70
2018-04-18T06:45:23.818Z,18.40
2018-04-18T06:47:51.374Z,19.10
2018-04-18T06:50:19.303Z,19.90
2018-04-18T06:52:46.851Z,20.80
2018-04-18T06:55:14.376Z,21.10
2018-04-18T06:57:41.910Z,21.40
2018-04-18T07:00:09.480Z,21.50
2018-04-18T07:02:36.999Z,21.60
2018-04-18T07:05:04.549Z,21.70
2018-04-18T07:07:32.058Z,21.10
2018-04-18T07:10:01.056Z,20.70
2018-04-18T07:12:28.588Z,19.90
2018-04-18T07:14:56.704Z,19.80
2018-04-18T07:17:24.223Z,20.10
2018-04-18T07:19:51.831Z,20.20
2018-04-18T07:22:19.358Z,20.30
2018-04-18T07:24:48.009Z,20.30
2018-04-18T07:27:15.519Z,20.20
2018-04-18T07:29:43.077Z,19.80
2018-04-18T07:32:10.597Z,19.80
2018-04-18T07:34:38.154Z,19.70
2018-04-18T07:37:05.691Z,19.60
2018-04-18T07:39:33.242Z,19.60
2018-04-18T07:42:01.522Z,19.40
2018-04-18T07:44:29.066Z,19.40
2018-04-18T07:46:56.620Z,19.40
2018-04-18T07:49:24.171Z,19.50
2018-04-18T07:51:51.727Z,19.40
2018-04-18T07:54:19.270Z,19.30
2018-04-18T07:56:46.795Z,19.60
2018-04-18T07:59:14.343Z,19.60
2018-04-18T08:01:42.639Z,19.80
2018-04-18T08:04:10.207Z,19.80
2018-04-18T08:06:37.723Z,20.00
2018-04-18T08:09:06.146Z,20.00
2018-04-18T08:11:33.692Z,20.00
2018-04-18T08:14:01.239Z,20.10
2018-04-18T08:16:28.767Z,20.20
2018-04-18T08:18:56.310Z,20.20
2018-04-18T08:21:23.866Z,20.30
2018-04-18T08:23:51.411Z,20.40
2018-04-18T08:26:18.945Z,20.50
2018-04-18T08:28:47.269Z,20.80
2018-04-18T08:31:14.781Z,20.70
2018-04-18T08:33:42.314Z,20.80
2018-04-18T08:36:09.857Z,20.90
2018-04-18T08:38:37.393Z,20.90
2018-04-18T08:41:04.927Z,20.90
2018-04-18T08:43:32.459Z,21.00
2018-04-18T08:46:00.004Z,21.10
2018-04-18T08:48:27.547Z,21.20
2018-04-18T08:50:55.497Z,21.30
2018-04-18T08:53:23.023Z,21.50
2018-04-18T08:55:51.326Z,21.70
2018-04-18T08:58:18.844Z,21.70
2018-04-18T09:00:47.150Z,22.00
2018-04-18T09:03:15.447Z,22.00
2018-04-18T09:05:42.999Z,21.90
2018-04-18T09:08:10.907Z,22.10
2018-04-18T09:10:38.446Z,22.20
2018-04-18T09:13:06.359Z,22.30
2018-04-18T09:15:33.911Z,22.30
2018-04-18T09:18:01.476Z,22.40
2018-04-18T09:20:29.914Z,22.40
2018-04-18T09:22:57.514Z,22.40
2018-04-18T09:25:25.061Z,22.40
2018-04-18T09:27:52.567Z,22.40
2018-04-18T09:30:20.903Z,22.40
2018-04-18T09:32:48.415Z,22.40
2018-04-18T09:35:15.973Z,22.60
2018-04-18T09:37:43.484Z,22.60
2018-04-18T09:40:11.024Z,22.60
2018-04-18T09:42:38.548Z,22.50
2018-04-18T09:45:06.149Z,22.50
2018-04-18T09:47:33.635Z,22.50
2018-04-18T09:50:01.175Z,22.60
2018-04-18T09:52:28.708Z,22.70
2018-04-18T09:54:56.258Z,22.80
2018-04-18T09:57:23.789Z,22.90
2018-04-18T09:59:51.358Z,22.90
2018-04-18T10:05:20.082Z,23.00
2018-04-18T10:07:47.590Z,23.00
2018-04-18T10:10:15.173Z,23.00
2018-04-18T10:12:42.701Z,23.00
2018-04-18T10:15:10.242Z,22.90
2018-04-18T10:17:37.766Z,22.90
2018-04-18T10:20:05.310Z,22.90
2018-04-18T10:22:32.848Z,23.10
2018-04-18T10:25:00.378Z,23.10
2018-04-18T10:27:27.899Z,23.00
2018-04-18T10:29:56.199Z,22.90
2018-04-18T10:32:23.720Z,22.80
2018-04-18T10:34:51.235Z,23.00
2018-04-18T10:37:18.786Z,23.00
2018-04-18T10:39:46.313Z,23.00
2018-04-18T10:42:13.838Z,22.90
2018-04-18T10:44:41.351Z,23.00
2018-04-18T10:47:08.892Z,23.00
2018-04-18T10:49:36.396Z,23.10
2018-04-18T10:52:03.938Z,23.20
2018-04-18T10:54:31.459Z,23.20
2018-04-18T10:56:59.018Z,23.30
2018-04-18T10:59:26.539Z,23.30
2018-04-18T11:01:54.262Z,23.30
2018-04-18T11:04:21.770Z,23.30
2018-04-18T11:06:49.936Z,23.20
2018-04-18T11:09:17.447Z,23.20
2018-04-18T11:11:44.985Z,23.20
2018-04-18T11:14:12.498Z,23.20
2018-04-18T11:16:40.041Z,23.30
2018-04-18T11:19:07.554Z,23.20
2018-04-18T11:21:35.090Z,23.20
2018-04-18T11:24:02.598Z,23.20
2018-04-18T11:26:30.153Z,23.20
2018-04-18T11:28:57.673Z,23.30
2018-04-18T11:31:25.204Z,23.30
2018-04-18T11:33:53.341Z,23.20
2018-04-18T11:36:21.658Z,23.30
2018-04-18T11:38:49.602Z,23.30
2018-04-18T11:41:17.148Z,23.30
2018-04-18T11:43:44.683Z,23.30
2018-04-18T11:46:13.092Z,23.30
2018-04-18T11:48:40.603Z,23.40
2018-04-18T11:51:08.172Z,23.30
2018-04-18T11:53:35.698Z,23.30
2018-04-18T11:56:03.248Z,23.30
2018-04-18T11:58:30.778Z,23.30
2018-04-18T12:00:58.315Z,23.40
2018-04-18T12:03:25.833Z,23.40
2018-04-18T12:05:53.374Z,23.50
2018-04-18T12:08:20.891Z,23.40
2018-04-18T12:10:48.401Z,23.40
2018-04-18T12:13:15.935Z,23.50
2018-04-18T12:15:43.485Z,23.60
2018-04-18T12:18:11.031Z,23.50
2018-04-18T12:20:38.599Z,23.60
2018-04-18T12:23:06.111Z,23.60
2018-04-18T12:25:33.624Z,23.60
2018-04-18T12:28:01.156Z,23.60
2018-04-18T12:30:28.678Z,23.50
2018-04-18T12:32:56.993Z,23.20
2018-04-18T12:35:24.511Z,23.20
2018-04-18T12:37:52.342Z,23.30
2018-04-18T12:40:19.862Z,23.30
2018-04-18T12:42:48.173Z,23.20
2018-04-18T12:45:15.692Z,23.20
2018-04-18T12:47:43.254Z,23.30
2018-04-18T12:50:11.537Z,23.10
2018-04-18T12:52:39.066Z,23.10
2018-04-18T12:55:06.588Z,23.20
2018-04-18T12:57:34.140Z,23.30
2018-04-18T13:00:01.683Z,23.30
2018-04-18T13:02:29.234Z,23.20
2018-04-18T13:04:56.752Z,23.20
2018-04-18T13:07:24.291Z,23.20
2018-04-18T13:09:51.810Z,23.20
2018-04-18T13:12:19.438Z,23.10
2018-04-18T13:14:46.923Z,23.10
2018-04-18T13:17:15.260Z,23.10
2018-04-18T13:19:42.775Z,23.10
2018-04-18T13:22:12.219Z,23.10
2018-04-18T13:24:39.733Z,23.10
2018-04-18T13:27:08.048Z,23.10
2018-04-18T13:29:35.872Z,23.10
2018-04-18T13:32:03.407Z,23.20
2018-04-18T13:34:30.923Z,23.20
2018-04-18T13:36:58.476Z,23.20
2018-04-18T13:39:25.996Z,23.10
2018-04-18T13:41:53.556Z,23.20
2018-04-18T13:44:21.124Z,23.00
2018-04-18T13:46:48.656Z,23.10
2018-04-18T13:49:16.179Z,23.10
2018-04-18T13:51:44.140Z,23.10
2018-04-18T13:54:11.699Z,23.10
2018-04-18T13:56:39.227Z,23.10
2018-04-18T13:59:06.811Z,22.90
2018-04-18T14:01:36.236Z,23.00
2018-04-18T14:04:03.935Z,23.00
2018-04-18T14:06:31.455Z,23.00
2018-04-18T14:08:58.994Z,23.00
2018-04-18T14:11:27.627Z,22.90
2018-04-18T14:13:55.172Z,22.90
2018-04-18T14:16:22.695Z,22.90
2018-04-18T14:18:50.273Z,22.90
2018-04-18T14:21:17.826Z,22.90
2018-04-18T14:23:45.378Z,22.80
2018-04-18T14:26:12.910Z,22.80
2018-04-18T14:28:40.481Z,22.90
2018-04-18T14:31:07.998Z,22.80
2018-04-18T14:33:35.531Z,22.80
2018-04-18T14:36:03.062Z,22.90
2018-04-18T14:38:30.606Z,22.90
2018-04-18T14:40:58.127Z,23.00
2018-04-18T14:43:26.434Z,23.00
2018-04-18T14:45:53.984Z,23.00
2018-04-18T14:48:21.512Z,23.00
2018-04-18T14:50:50.331Z,23.00
2018-04-18T14:53:17.874Z,23.00
2018-04-18T14:55:45.386Z,23.00
2018-04-18T14:58:12.945Z,23.10
2018-04-18T15:00:40.462Z,23.10
2018-04-18T15:03:08.243Z,23.10
2018-04-18T15:05:35.781Z,23.10
2018-04-18T15:08:04.091Z,23.10
2018-04-18T15:10:31.611Z,23.20
2018-04-18T15:12:59.193Z,23.10
2018-04-18T15:15:26.727Z,23.10
2018-04-18T15:17:54.266Z,23.10
2018-04-18T15:20:21.776Z,23.20
2018-04-18T15:22:49.314Z,23.20
2018-04-18T15:25:16.853Z,23.30
2018-04-18T15:27:44.389Z,23.20
2018-04-18T15:30:11.909Z,23.20
2018-04-18T15:32:39.859Z,23.10
2018-04-18T15:35:08.155Z,23.10
2018-04-18T15:37:35.679Z,23.10
2018-04-18T15:40:03.705Z,23.10
2018-04-18T15:42:31.637Z,23.20
2018-04-18T15:44:59.172Z,23.20
2018-04-18T15:47:26.698Z,23.20
2018-04-18T15:49:54.258Z,23.20
2018-04-18T15:52:21.983Z,23.20
2018-04-18T15:54:49.522Z,23.10
2018-04-18T15:57:17.046Z,23.00
2018-04-18T15:59:44.598Z,23.00
2018-04-18T16:02:12.131Z,23.00
2018-04-18T16:04:39.670Z,23.10
2018-04-18T16:07:07.182Z,23.00
2018-04-18T16:09:34.734Z,23.10
2018-04-18T16:12:02.253Z,23.10
2018-04-18T16:14:30.559Z,23.20
2018-04-18T16:16:58.105Z,23.20
2018-04-18T16:19:25.658Z,23.10
2018-04-18T16:21:53.938Z,23.00
2018-04-18T16:24:21.477Z,23.00
2018-04-18T16:26:49.030Z,23.10
2018-04-18T16:29:28.543Z,23.00
2018-04-18T16:31:56.084Z,23.00
2018-04-18T16:34:23.627Z,22.90
2018-04-18T16:36:52.071Z,22.80
2018-04-18T16:39:19.598Z,22.80
2018-04-18T16:41:47.125Z,22.80
2018-04-18T16:44:15.460Z,22.80
2018-04-18T16:46:42.967Z,22.80
2018-04-18T16:49:10.499Z,22.80
2018-04-18T16:51:38.010Z,22.70
2018-04-18T16:54:05.545Z,22.70
2018-04-18T16:56:33.081Z,22.70
2018-04-18T16:59:00.621Z,22.60
2018-04-18T17:01:28.150Z,22.60
2018-04-18T17:03:55.689Z,22.50
2018-04-18T17:06:23.207Z,22.50
2018-04-18T17:08:50.734Z,22.50
2018-04-18T17:11:18.255Z,22.50
2018-04-18T17:13:45.767Z,22.50
2018-04-18T17:16:13.323Z,22.40
2018-04-18T17:18:40.838Z,22.20
2018-04-18T17:21:08.381Z,22.20
2018-04-18T17:23:35.901Z,22.00
2018-04-18T17:26:03.471Z,21.90
2018-04-18T17:28:30.998Z,21.80
2018-04-18T17:30:59.447Z,21.90
2018-04-18T17:33:26.999Z,21.80
2018-04-18T17:35:54.534Z,21.70
2018-04-18T17:38:22.055Z,21.60
2018-04-18T17:40:49.608Z,21.50
2018-04-18T17:43:17.133Z,21.40
2018-04-18T17:45:44.696Z,21.30
2018-04-18T17:48:12.214Z,21.10
2018-04-18T17:50:39.758Z,21.00
2018-04-18T17:53:07.287Z,20.80
2018-04-18T17:55:34.858Z,20.70
2018-04-18T17:58:02.383Z,20.60
2018-04-18T18:00:30.316Z,20.50
2018-04-18T18:02:57.826Z,20.30
2018-04-18T18:05:25.395Z,20.20
2018-04-18T18:07:52.961Z,20.00
2018-04-18T18:10:20.510Z,19.80
2018-04-18T18:12:48.043Z,19.70
2018-04-18T18:15:15.582Z,19.50
2018-04-18T18:17:43.121Z,19.20
2018-04-18T18:20:10.659Z,19.10
2018-04-18T18:22:38.178Z,18.90
2018-04-18T18:25:05.725Z,18.80
2018-04-18T18:27:33.267Z,18.60
2018-04-18T18:30:00.804Z,18.50
2018-04-18T18:32:28.322Z,18.40
2018-04-18T18:34:55.870Z,18.30
2018-04-18T18:37:23.391Z,18.30
2018-04-18T18:39:51.697Z,18.10
2018-04-18T18:42:19.623Z,18.10
2018-04-18T18:44:47.184Z,18.00
2018-04-18T18:47:14.694Z,18.10
2018-04-18T18:49:42.259Z,18.10
2018-04-18T18:52:09.840Z,18.10
2018-04-18T18:54:37.354Z,18.10
2018-04-18T18:57:04.901Z,18.10
2018-04-18T18:59:32.431Z,18.10
2018-04-18T19:02:00.595Z,18.10
2018-04-18T19:04:28.122Z,18.10
2018-04-18T19:06:55.975Z,18.10
2018-04-18T19:09:24.216Z,18.00
2018-04-18T19:11:51.764Z,18.00
2018-04-18T19:14:19.299Z,17.90
2018-04-18T19:16:46.836Z,17.90
2018-04-18T19:19:14.957Z,17.90
2018-04-18T19:21:42.495Z,17.80
2018-04-18T19:24:10.014Z,17.80
2018-04-18T19:26:38.578Z,17.70
2018-04-18T19:29:06.120Z,17.70
2018-04-18T19:31:33.675Z,17.70
2018-04-18T19:34:01.955Z,17.60
2018-04-18T19:36:29.555Z,17.50
2018-04-18T19:38:57.844Z,17.60
2018-04-18T19:41:25.386Z,17.60
2018-04-18T19:43:53.669Z,17.70
2018-04-18T19:46:21.214Z,17.60
2018-04-18T19:48:48.743Z,17.80
2018-04-18T19:51:16.315Z,17.90
2018-04-18T19:53:43.835Z,17.90
2018-04-18T19:56:11.367Z,18.00
2018-04-18T19:58:38.878Z,18.00
2018-04-18T20:01:06.411Z,18.00
2018-04-18T20:03:33.935Z,18.00
2018-04-18T20:06:01.495Z,18.00
2018-04-18T20:08:29.479Z,18.00
2018-04-18T20:10:57.050Z,17.90
2018-04-18T20:13:24.604Z,17.90
2018-04-18T20:15:52.142Z,17.90
2018-04-18T20:18:19.668Z,17.90
2018-04-18T20:20:47.227Z,17.80
2018-04-18T20:23:14.750Z,17.80
2018-04-18T20:25:43.059Z,17.70
2018-04-18T20:28:10.660Z,17.70
2018-04-18T20:30:38.180Z,17.70
2018-04-18T20:33:05.706Z,17.60
2018-04-18T20:35:33.243Z,17.60
2018-04-18T20:38:00.824Z,17.50
2018-04-18T20:40:28.327Z,17.50
2018-04-18T20:42:56.772Z,17.50
2018-04-18T20:45:24.291Z,17.50
2018-04-18T20:47:51.824Z,17.40
2018-04-18T20:50:19.342Z,17.40
2018-04-18T20:52:47.655Z,17.20
2018-04-18T20:55:15.207Z,17.20
2018-04-18T20:57:43.693Z,17.10
2018-04-18T21:00:11.212Z,17.10
2018-04-18T21:02:39.535Z,17.10
2018-04-18T21:05:07.091Z,17.00
2018-04-18T21:07:34.599Z,17.00
2018-04-18T21:10:02.131Z,16.90
2018-04-18T21:12:29.668Z,16.90
2018-04-18T21:14:57.394Z,16.90
2018-04-18T21:17:25.161Z,16.80
2018-04-18T21:19:52.717Z,16.80
2018-04-18T21:22:20.254Z,16.80
2018-04-18T21:24:47.768Z,16.80
2018-04-18T21:27:15.307Z,16.70
2018-04-18T21:29:43.592Z,16.70
2018-04-18T21:32:11.143Z,16.70
2018-04-18T21:34:38.654Z,16.80
2018-04-18T21:37:06.207Z,16.60
2018-04-18T21:39:33.729Z,16.60
2018-04-18T21:42:02.045Z,16.50
2018-04-18T21:44:29.611Z,16.50
2018-04-18T21:46:57.152Z,16.40
2018-04-18T21:49:24.720Z,16.30
2018-04-18T21:51:52.259Z,16.30
2018-04-18T21:54:19.790Z,16.20
2018-04-18T21:56:47.345Z,16.00
2018-04-18T21:59:14.865Z,15.90
2018-04-18T22:01:42.400Z,15.80
2018-04-18T22:04:09.958Z,15.80
2018-04-18T22:06:37.513Z,15.60
2018-04-18T22:09:05.054Z,15.60
2018-04-18T22:11:32.568Z,15.50
2018-04-18T22:14:00.137Z,15.40
2018-04-18T22:16:27.679Z,15.40
2018-04-18T22:18:55.223Z,15.30
2018-04-18T22:21:22.756Z,15.20
2018-04-18T22:23:50.286Z,15.10
2018-04-18T22:26:17.867Z,15.10
2018-04-18T22:28:45.403Z,15.00
2018-04-18T22:31:12.922Z,14.80
2018-04-18T22:33:40.464Z,14.90
2018-04-18T22:36:08.008Z,14.80
2018-04-18T22:38:35.551Z,14.80
2018-04-18T22:41:03.063Z,14.80
2018-04-18T22:43:30.599Z,14.80
2018-04-18T22:45:58.888Z,14.70
2018-04-18T22:48:26.424Z,14.70
2018-04-18T22:50:53.947Z,14.70
2018-04-18T22:53:21.482Z,14.60
2018-04-18T22:55:49.016Z,14.60
2018-04-18T22:58:16.559Z,14.60
2018-04-18T23:00:44.078Z,14.50
2018-04-18T23:03:11.615Z,14.50
2018-04-18T23:05:39.190Z,14.40
2018-04-18T23:08:06.734Z,14.40
2018-04-18T23:10:35.006Z,14.30
2018-04-18T23:13:02.546Z,14.30
2018-04-18T23:15:30.085Z,14.30
2018-04-18T23:17:57.631Z,14.30
2018-04-18T23:20:25.155Z,14.20
2018-04-18T23:22:53.502Z,14.40
2018-04-18T23:25:21.042Z,14.40
2018-04-18T23:27:48.586Z,14.50
2018-04-18T23:30:16.129Z,14.50
2018-04-18T23:32:43.658Z,14.50
2018-04-18T23:35:11.190Z,14.40
2018-04-18T23:37:38.754Z,14.40
2018-04-18T23:40:06.283Z,14.30
2018-04-18T23:42:33.840Z,14.30
2018-04-18T23:45:02.163Z,14.30
2018-04-18T23:47:29.695Z,14.30
2018-04-18T23:49:57.236Z,14.40
2018-04-18T23:52:24.767Z,14.30
2018-04-18T23:54:52.323Z,14.40
2018-04-18T23:57:19.914Z,14.20
2018-04-18T23:59:47.468Z,14.30
